createdAt,value
2022-12-31T00:00:08.047Z,1.07
2022-12-31T00:02:35.380Z,1.00
2022-12-31T00:05:02.336Z,1.20
2022-12-31T00:07:29.168Z,1.20
2022-12-31T00:09:55.697Z,1.20
2022-12-31T00:12:22.449Z,1.30
2022-12-31T00:14:49.647Z,1.00
2022-12-31T00:17:16.182Z,1.27
2022-12-31T00:19:42.756Z,1.00
2022-12-31T00:22:09.396Z,1.00
2022-12-31T00:24:36.465Z,1.10
2022-12-31T00:27:03.198Z,1.20
2022-12-31T00:29:29.848Z,0.97
2022-12-31T00:31:56.520Z,1.10
2022-12-31T00:34:23.526Z,0.90
2022-12-31T00:36:50.119Z,0.80
2022-12-31T00:39:16.775Z,0.80
2022-12-31T00:41:44.189Z,0.80
2022-12-31T00:44:12.256Z,0.90
2022-12-31T00:49:05.453Z,0.80
2022-12-31T00:51:32.138Z,1.10
2022-12-31T00:53:59.075Z,0.90
2022-12-31T00:56:28.209Z,0.80
2022-12-31T00:58:55.336Z,0.87
2022-12-31T01:01:30.176Z,0.83
2022-12-31T01:04:06.368Z,0.73
2022-12-31T01:06:33.395Z,0.73
2022-12-31T01:09:01.252Z,0.90
2022-12-31T01:11:30.694Z,0.83
2022-12-31T01:14:06.078Z,0.90
2022-12-31T01:16:32.699Z,0.70
2022-12-31T01:19:01.061Z,0.90
2022-12-31T01:21:28.637Z,1.00
2022-12-31T01:23:55.258Z,1.30
2022-12-31T01:26:22.139Z,1.10
2022-12-31T01:28:48.853Z,1.00
2022-12-31T01:31:18.514Z,1.03
2022-12-31T01:33:45.435Z,0.73
2022-12-31T01:36:14.311Z,0.80
2022-12-31T01:38:41.771Z,0.77
2022-12-31T01:41:12.326Z,0.70
2022-12-31T01:43:55.444Z,1.13
2022-12-31T01:46:27.593Z,0.70
2022-12-31T01:48:57.813Z,0.70
2022-12-31T01:51:25.897Z,0.70
2022-12-31T01:53:52.591Z,0.63
2022-12-31T01:56:21.943Z,0.90
2022-12-31T01:58:51.302Z,0.60
2022-12-31T02:01:23.819Z,0.60
2022-12-31T02:03:51.359Z,0.73
2022-12-31T02:06:24.212Z,0.60
2022-12-31T02:08:51.548Z,0.60
2022-12-31T02:11:30.369Z,1.30
2022-12-31T02:13:59.957Z,1.03
2022-12-31T02:16:39.968Z,0.90
2022-12-31T02:19:06.703Z,0.60
2022-12-31T02:22:02.839Z,0.60
2022-12-31T02:24:43.757Z,0.60
2022-12-31T02:27:18.208Z,0.70
2022-12-31T02:30:03.139Z,0.60
2022-12-31T02:32:37.204Z,0.60
2022-12-31T02:35:14.727Z,1.00
2022-12-31T02:37:43.516Z,0.60
2022-12-31T02:40:12.016Z,0.60
2022-12-31T02:42:38.641Z,0.50
2022-12-31T02:45:06.057Z,0.60
2022-12-31T02:47:35.739Z,0.60
2022-12-31T02:50:32.816Z,0.60
2022-12-31T02:53:20.575Z,0.60
2022-12-31T02:55:47.147Z,0.60
2022-12-31T02:58:20.100Z,0.70
2022-12-31T03:01:12.065Z,0.60
2022-12-31T03:03:39.680Z,0.60
2022-12-31T03:06:08.040Z,0.60
2022-12-31T03:08:54.848Z,0.70
2022-12-31T03:11:40.389Z,0.60
2022-12-31T03:14:07.058Z,0.60
2022-12-31T03:16:34.998Z,0.60
2022-12-31T03:19:20.285Z,0.57
2022-12-31T03:22:05.627Z,0.63
2022-12-31T03:24:50.793Z,0.60
2022-12-31T03:27:17.453Z,0.50
2022-12-31T03:29:43.965Z,0.60
2022-12-31T03:32:10.550Z,0.63
2022-12-31T03:34:37.307Z,0.70
2022-12-31T03:37:04.197Z,0.73
2022-12-31T03:39:30.764Z,0.70
2022-12-31T03:41:57.403Z,0.60
2022-12-31T03:44:23.916Z,0.70
2022-12-31T03:46:50.516Z,0.70
2022-12-31T03:49:17.202Z,0.80
2022-12-31T03:51:43.808Z,0.73
2022-12-31T03:54:10.706Z,0.70
2022-12-31T03:56:37.375Z,0.60
2022-12-31T03:59:04.010Z,0.80
2022-12-31T04:01:30.719Z,0.60
2022-12-31T04:03:57.500Z,0.73
2022-12-31T04:06:24.187Z,0.83
2022-12-31T04:08:50.770Z,0.63
2022-12-31T04:11:20.954Z,0.80
2022-12-31T04:13:47.884Z,0.77
2022-12-31T04:16:14.769Z,0.70
2022-12-31T04:18:41.502Z,0.70
2022-12-31T04:21:08.119Z,0.80
2022-12-31T04:23:34.784Z,0.80
2022-12-31T04:26:01.404Z,1.20
2022-12-31T04:28:28.119Z,0.70
2022-12-31T04:30:54.794Z,0.87
2022-12-31T04:33:21.395Z,0.70
2022-12-31T04:35:48.457Z,0.70
2022-12-31T04:38:15.266Z,0.70
2022-12-31T04:41:01.841Z,1.00
2022-12-31T04:43:28.736Z,0.80
2022-12-31T04:45:55.362Z,0.70
2022-12-31T04:48:22.041Z,0.63
2022-12-31T04:50:48.577Z,0.70
2022-12-31T04:53:15.276Z,0.90
2022-12-31T04:55:41.874Z,0.90
2022-12-31T04:58:08.459Z,0.70
2022-12-31T05:00:35.235Z,0.80
2022-12-31T05:03:02.196Z,0.60
2022-12-31T05:05:28.866Z,0.70
2022-12-31T05:07:55.668Z,0.60
2022-12-31T05:10:23.415Z,0.73
2022-12-31T05:12:50.065Z,1.30
2022-12-31T05:15:16.666Z,0.80
2022-12-31T05:17:43.224Z,0.70
2022-12-31T05:20:10.215Z,0.70
2022-12-31T05:22:37.634Z,0.70
2022-12-31T05:25:04.722Z,0.80
2022-12-31T05:27:31.708Z,0.70
2022-12-31T05:29:58.797Z,0.77
2022-12-31T05:32:25.796Z,0.80
2022-12-31T05:34:53.613Z,0.83
2022-12-31T05:37:20.193Z,0.70
2022-12-31T05:39:46.789Z,0.90
2022-12-31T05:42:13.331Z,0.80
2022-12-31T05:44:40.138Z,0.70
2022-12-31T05:47:06.741Z,0.80
2022-12-31T05:49:33.311Z,0.80
2022-12-31T05:52:00.100Z,0.77
2022-12-31T05:54:26.804Z,0.60
2022-12-31T05:56:53.847Z,0.70
2022-12-31T05:59:20.503Z,0.90
2022-12-31T06:01:47.341Z,0.80
2022-12-31T06:04:14.251Z,1.00
2022-12-31T06:06:41.140Z,0.70
2022-12-31T06:09:07.740Z,0.80
2022-12-31T06:11:34.492Z,0.83
2022-12-31T06:14:01.255Z,0.87
2022-12-31T06:16:28.803Z,0.80
2022-12-31T06:18:55.497Z,0.80
2022-12-31T06:21:22.558Z,0.70
2022-12-31T06:23:49.264Z,0.80
2022-12-31T06:26:15.908Z,0.70
2022-12-31T06:28:42.542Z,0.70
2022-12-31T06:31:12.572Z,0.67
2022-12-31T06:33:39.428Z,0.80
2022-12-31T06:36:07.731Z,0.60
2022-12-31T06:38:36.975Z,0.80
2022-12-31T06:41:07.950Z,0.70
2022-12-31T06:43:35.351Z,0.70
2022-12-31T06:46:03.425Z,0.70
2022-12-31T06:48:30.184Z,1.17
2022-12-31T06:50:57.155Z,0.90
2022-12-31T06:53:23.708Z,0.80
2022-12-31T06:55:50.798Z,0.90
2022-12-31T06:58:17.817Z,0.90
2022-12-31T07:01:00.488Z,0.70
2022-12-31T07:03:40.877Z,0.80
2022-12-31T07:06:15.148Z,1.20
2022-12-31T07:08:52.444Z,0.80
2022-12-31T07:11:21.663Z,0.90
2022-12-31T07:14:07.077Z,0.80
2022-12-31T07:16:48.851Z,0.90
2022-12-31T07:19:30.298Z,0.80
2022-12-31T07:21:59.961Z,0.90
2022-12-31T07:24:27.305Z,0.80
2022-12-31T07:27:24.997Z,1.10
2022-12-31T07:30:18.118Z,0.80
2022-12-31T07:32:54.167Z,1.07
2022-12-31T07:35:39.855Z,1.00
2022-12-31T07:38:31.455Z,1.10
2022-12-31T07:41:09.349Z,0.80
2022-12-31T07:44:01.031Z,0.80
2022-12-31T07:46:36.219Z,0.80
2022-12-31T07:49:03.291Z,1.10
2022-12-31T07:51:31.341Z,0.93
2022-12-31T07:53:58.551Z,0.80
2022-12-31T07:56:25.354Z,1.00
2022-12-31T07:59:22.467Z,0.80
2022-12-31T08:02:00.157Z,0.80
2022-12-31T08:04:39.251Z,0.83
2022-12-31T08:07:31.061Z,0.90
2022-12-31T08:10:35.674Z,0.80
2022-12-31T08:13:05.759Z,1.10
2022-12-31T08:15:33.233Z,1.00
2022-12-31T08:18:00.336Z,0.90
2022-12-31T08:20:27.519Z,0.90
2022-12-31T08:23:19.833Z,0.83
2022-12-31T08:26:17.176Z,1.10
2022-12-31T08:29:13.133Z,0.90
2022-12-31T08:31:47.793Z,0.80
2022-12-31T08:34:32.624Z,0.80
2022-12-31T08:37:31.782Z,0.90
2022-12-31T08:39:58.328Z,1.00
2022-12-31T08:42:24.929Z,1.07
2022-12-31T08:45:17.686Z,0.90
2022-12-31T08:47:47.040Z,0.80
2022-12-31T08:50:18.346Z,0.93
2022-12-31T08:52:46.219Z,1.00
2022-12-31T08:55:19.034Z,1.23
2022-12-31T08:58:08.727Z,0.80
2022-12-31T09:00:36.255Z,0.97
2022-12-31T09:03:40.722Z,1.00
2022-12-31T09:06:18.873Z,0.90
2022-12-31T09:09:07.231Z,0.87
2022-12-31T09:12:11.715Z,0.83
2022-12-31T09:14:51.860Z,1.00
2022-12-31T09:17:18.480Z,0.90
2022-12-31T09:19:45.223Z,0.90
2022-12-31T09:22:12.085Z,0.80
2022-12-31T09:24:41.127Z,0.83
2022-12-31T09:27:27.406Z,0.93
2022-12-31T09:30:08.375Z,1.00
2022-12-31T09:32:51.929Z,1.60
2022-12-31T09:35:40.937Z,1.10
2022-12-31T09:38:19.882Z,0.93
2022-12-31T09:41:00.170Z,1.30
2022-12-31T09:44:08.265Z,0.90
2022-12-31T09:47:12.375Z,1.20
2022-12-31T09:49:57.996Z,1.10
2022-12-31T09:52:58.789Z,1.00
2022-12-31T09:56:03.251Z,1.60
2022-12-31T09:58:49.271Z,1.10
2022-12-31T10:01:50.059Z,1.20
2022-12-31T10:04:27.619Z,1.20
2022-12-31T10:07:25.289Z,1.67
2022-12-31T10:09:51.832Z,0.80
2022-12-31T10:12:54.357Z,0.93
2022-12-31T10:15:36.275Z,1.10
2022-12-31T10:18:23.297Z,1.90
2022-12-31T10:21:34.773Z,1.13
2022-12-31T10:24:52.619Z,1.30
2022-12-31T10:27:28.912Z,1.30
2022-12-31T10:30:22.759Z,1.40
2022-12-31T10:33:32.569Z,1.10
2022-12-31T10:36:05.175Z,1.10
2022-12-31T10:39:00.913Z,1.40
2022-12-31T10:42:18.359Z,0.90
2022-12-31T10:44:51.186Z,1.20
2022-12-31T10:47:30.059Z,1.13
2022-12-31T10:50:27.459Z,1.00
2022-12-31T10:53:04.700Z,0.97
2022-12-31T10:56:06.700Z,0.80
2022-12-31T10:58:54.653Z,1.20
2022-12-31T11:01:30.687Z,1.53
2022-12-31T11:04:26.155Z,1.00
2022-12-31T11:07:28.352Z,1.10
2022-12-31T11:10:00.768Z,1.63
2022-12-31T11:12:50.819Z,1.20
2022-12-31T11:15:26.820Z,0.93
2022-12-31T11:18:15.892Z,1.53
2022-12-31T11:20:56.298Z,1.23
2022-12-31T11:23:38.329Z,1.40
2022-12-31T11:26:23.613Z,1.77
2022-12-31T11:28:59.228Z,1.10
2022-12-31T11:31:35.451Z,1.40
2022-12-31T11:34:17.330Z,1.40
2022-12-31T11:37:21.229Z,1.10
2022-12-31T11:40:20.037Z,1.17
2022-12-31T11:43:00.495Z,1.00
2022-12-31T11:45:50.713Z,1.27
2022-12-31T11:48:39.344Z,1.53
2022-12-31T11:51:32.093Z,1.30
2022-12-31T11:54:15.104Z,1.33
2022-12-31T11:56:46.534Z,1.20
2022-12-31T11:59:18.973Z,1.83
2022-12-31T12:02:45.132Z,1.33
2022-12-31T12:05:21.092Z,1.33
2022-12-31T12:07:49.352Z,1.20
2022-12-31T12:10:22.370Z,1.10
2022-12-31T12:12:50.204Z,1.30
2022-12-31T12:15:45.221Z,1.10
2022-12-31T12:18:37.001Z,1.30
2022-12-31T12:21:19.138Z,1.07
2022-12-31T12:24:01.842Z,1.30
2022-12-31T12:26:37.976Z,1.60
2022-12-31T12:29:16.176Z,1.00
2022-12-31T12:31:43.281Z,1.10
2022-12-31T12:34:23.649Z,1.40
2022-12-31T12:36:50.312Z,1.83
2022-12-31T12:39:29.554Z,1.40
2022-12-31T12:42:05.892Z,1.20
2022-12-31T12:44:33.343Z,1.17
2022-12-31T12:47:02.630Z,1.40
2022-12-31T12:49:32.425Z,1.50
2022-12-31T12:52:14.445Z,1.20
2022-12-31T12:55:20.746Z,1.30
2022-12-31T12:58:06.360Z,1.20
2022-12-31T13:00:45.255Z,1.43
2022-12-31T13:03:36.869Z,1.73
2022-12-31T13:06:19.178Z,1.57
2022-12-31T13:09:27.567Z,1.30
2022-12-31T13:12:17.239Z,1.27
2022-12-31T13:14:53.430Z,1.43
2022-12-31T13:18:08.246Z,1.70
2022-12-31T13:20:41.761Z,2.40
2022-12-31T13:23:23.617Z,1.50
2022-12-31T13:26:13.230Z,1.30
2022-12-31T13:28:42.795Z,1.40
2022-12-31T13:31:14.517Z,1.40
2022-12-31T13:33:44.750Z,1.73
2022-12-31T13:36:17.355Z,1.40
2022-12-31T13:38:51.211Z,1.80
2022-12-31T13:41:38.408Z,1.70
2022-12-31T13:44:23.280Z,1.50
2022-12-31T13:47:06.984Z,1.90
2022-12-31T13:49:40.591Z,1.63
2022-12-31T13:52:24.930Z,1.80
2022-12-31T13:54:56.665Z,2.17
2022-12-31T13:57:42.982Z,1.83
2022-12-31T14:00:19.511Z,2.03
2022-12-31T14:03:01.702Z,2.00
2022-12-31T14:05:31.475Z,2.03
2022-12-31T14:08:00.300Z,1.70
2022-12-31T14:10:32.668Z,2.87
2022-12-31T14:13:06.562Z,1.87
2022-12-31T14:15:39.030Z,1.70
2022-12-31T14:18:20.862Z,1.60
2022-12-31T14:20:56.768Z,1.70
2022-12-31T14:23:45.719Z,2.10
2022-12-31T14:26:23.926Z,1.53
2022-12-31T14:29:02.415Z,1.60
2022-12-31T14:31:48.048Z,1.40
2022-12-31T14:34:24.304Z,1.90
2022-12-31T14:37:00.275Z,1.70
2022-12-31T14:39:45.140Z,1.70
2022-12-31T14:42:48.239Z,1.50
2022-12-31T14:45:31.340Z,1.53
2022-12-31T14:48:10.192Z,1.80
2022-12-31T14:50:37.906Z,1.87
2022-12-31T14:53:04.425Z,6.33
2022-12-31T14:55:38.925Z,2.27
2022-12-31T14:58:28.808Z,1.53
2022-12-31T15:00:57.644Z,2.63
2022-12-31T15:03:26.910Z,1.80
2022-12-31T15:06:12.056Z,1.50
2022-12-31T15:09:09.595Z,1.87
2022-12-31T15:11:58.857Z,1.60
2022-12-31T15:14:56.663Z,2.10
2022-12-31T15:17:23.342Z,1.83
2022-12-31T15:20:18.232Z,1.83
2022-12-31T15:22:52.399Z,1.80
2022-12-31T15:25:22.140Z,1.93
2022-12-31T15:27:49.327Z,1.97
2022-12-31T15:30:44.904Z,1.73
2022-12-31T15:33:29.406Z,2.00
2022-12-31T15:35:57.020Z,1.80
2022-12-31T15:38:34.276Z,1.73
2022-12-31T15:41:12.195Z,1.70
2022-12-31T15:43:49.468Z,1.70
2022-12-31T15:46:26.345Z,2.80
2022-12-31T15:49:03.877Z,1.87
2022-12-31T15:51:43.992Z,2.03
2022-12-31T15:54:24.444Z,2.93
2022-12-31T15:56:52.019Z,2.10
2022-12-31T15:59:21.413Z,1.63
2022-12-31T16:01:50.702Z,2.10
2022-12-31T16:04:18.933Z,2.63
2022-12-31T16:06:50.642Z,5.40
2022-12-31T16:09:24.621Z,2.47
2022-12-31T16:11:52.308Z,4.00
2022-12-31T16:14:37.489Z,2.13
2022-12-31T16:17:05.185Z,2.80
2022-12-31T16:19:43.157Z,2.07
2022-12-31T16:22:17.323Z,2.50
2022-12-31T16:25:19.472Z,1.97
2022-12-31T16:27:31.795Z,1.50
2022-12-31T16:30:01.961Z,1.73
2022-12-31T16:32:34.930Z,1.97
2022-12-31T16:35:01.599Z,2.23
2022-12-31T16:37:28.879Z,2.23
2022-12-31T16:39:58.441Z,1.97
2022-12-31T16:42:26.971Z,2.37
2022-12-31T16:44:56.106Z,1.77
2022-12-31T16:47:24.623Z,3.10
2022-12-31T16:50:04.020Z,1.40
2022-12-31T16:52:41.754Z,2.33
2022-12-31T16:55:11.787Z,2.70
2022-12-31T16:57:38.485Z,1.70
2022-12-31T17:00:07.086Z,1.83
2022-12-31T17:02:39.640Z,2.20
2022-12-31T17:05:19.662Z,1.90
2022-12-31T17:07:46.323Z,2.23
2022-12-31T17:10:20.518Z,2.07
2022-12-31T17:13:26.930Z,1.70
2022-12-31T17:15:45.409Z,2.00
2022-12-31T17:18:19.130Z,2.63
2022-12-31T17:20:46.431Z,2.97
2022-12-31T17:23:22.618Z,2.33
2022-12-31T17:25:58.063Z,2.03
2022-12-31T17:28:25.659Z,1.70
2022-12-31T17:30:52.761Z,2.07
2022-12-31T17:33:22.435Z,2.03
2022-12-31T17:35:54.859Z,1.50
2022-12-31T17:38:21.364Z,1.70
2022-12-31T17:41:08.244Z,2.20
2022-12-31T17:43:38.773Z,2.17
2022-12-31T17:46:14.192Z,1.90
2022-12-31T17:48:41.635Z,2.00
2022-12-31T17:51:08.441Z,3.20
2022-12-31T17:53:35.474Z,3.30
2022-12-31T17:56:06.921Z,1.83
2022-12-31T17:58:36.463Z,2.40
2022-12-31T18:01:06.579Z,1.87
2022-12-31T18:03:33.328Z,3.50
2022-12-31T18:06:00.335Z,2.10
2022-12-31T18:08:27.122Z,1.93
2022-12-31T18:10:54.477Z,1.77
2022-12-31T18:13:24.514Z,1.93
2022-12-31T18:15:51.820Z,1.70
2022-12-31T18:18:24.772Z,1.33
2022-12-31T18:20:55.097Z,2.37
2022-12-31T18:23:30.589Z,2.60
2022-12-31T18:25:57.333Z,2.10
2022-12-31T18:28:24.041Z,2.20
2022-12-31T18:30:51.173Z,2.73
2022-12-31T18:33:25.087Z,1.80
2022-12-31T18:36:09.261Z,2.00
2022-12-31T18:38:40.255Z,2.20
2022-12-31T18:41:07.877Z,2.30
2022-12-31T18:43:34.509Z,2.87
2022-12-31T18:46:01.157Z,2.70
2022-12-31T18:48:27.902Z,1.70
2022-12-31T18:50:54.503Z,2.53
2022-12-31T18:53:23.268Z,1.83
2022-12-31T18:55:55.536Z,1.87
2022-12-31T18:58:23.027Z,2.97
2022-12-31T19:00:50.511Z,3.07
2022-12-31T19:03:20.085Z,2.17
2022-12-31T19:05:51.488Z,2.23
2022-12-31T19:08:19.341Z,2.80
2022-12-31T19:10:46.798Z,2.70
2022-12-31T19:13:14.886Z,2.33
2022-12-31T19:15:48.760Z,2.43
2022-12-31T19:18:15.501Z,2.67
2022-12-31T19:20:42.448Z,1.90
2022-12-31T19:23:20.632Z,1.83
2022-12-31T19:25:49.086Z,2.93
2022-12-31T19:28:23.092Z,2.30
2022-12-31T19:30:50.189Z,2.10
2022-12-31T19:33:17.313Z,2.13
2022-12-31T19:35:44.631Z,1.87
2022-12-31T19:38:29.074Z,2.50
2022-12-31T19:40:55.941Z,3.37
2022-12-31T19:43:23.485Z,2.90
2022-12-31T19:45:50.840Z,2.80
2022-12-31T19:48:30.274Z,2.33
2022-12-31T19:50:59.209Z,2.20
2022-12-31T19:53:27.338Z,2.27
2022-12-31T19:55:54.520Z,2.53
2022-12-31T19:58:25.545Z,3.17
2022-12-31T20:00:58.276Z,2.13
2022-12-31T20:03:29.044Z,2.33
2022-12-31T20:06:08.037Z,2.80
2022-12-31T20:08:36.332Z,1.90
2022-12-31T20:11:15.570Z,2.27
2022-12-31T20:13:42.908Z,2.27
2022-12-31T20:16:12.754Z,2.23
2022-12-31T20:18:41.455Z,2.27
2022-12-31T20:21:13.951Z,2.43
2022-12-31T20:23:41.050Z,3.50
2022-12-31T20:26:07.923Z,2.30
2022-12-31T20:28:35.928Z,2.57
2022-12-31T20:31:13.612Z,2.00
2022-12-31T20:33:41.124Z,3.97
2022-12-31T20:36:12.368Z,2.40
2022-12-31T20:38:46.910Z,3.33
2022-12-31T20:41:19.259Z,2.40
2022-12-31T20:43:46.839Z,2.03
2022-12-31T20:46:18.956Z,3.37
2022-12-31T20:48:46.768Z,3.17
2022-12-31T20:51:14.909Z,2.90
2022-12-31T20:53:47.883Z,2.60
2022-12-31T20:56:14.970Z,2.90
2022-12-31T20:58:42.013Z,2.97
2022-12-31T21:01:10.164Z,2.50
2022-12-31T21:06:25.405Z,2.67
2022-12-31T21:08:53.951Z,3.20
2022-12-31T21:11:39.329Z,2.40
2022-12-31T21:14:07.327Z,2.73
2022-12-31T21:16:34.396Z,2.90
2022-12-31T21:19:01.744Z,3.33
2022-12-31T21:21:28.769Z,2.67
2022-12-31T21:23:55.671Z,3.07
2022-12-31T21:26:22.633Z,3.83
2022-12-31T21:28:49.409Z,2.67
2022-12-31T21:31:19.023Z,3.30
2022-12-31T21:33:46.559Z,2.97
2022-12-31T21:36:16.566Z,3.80
2022-12-31T21:38:44.802Z,3.27
2022-12-31T21:41:34.098Z,3.40
2022-12-31T21:44:02.357Z,3.57
2022-12-31T21:46:29.411Z,5.30
2022-12-31T21:48:57.939Z,3.00
2022-12-31T21:51:24.899Z,3.10
2022-12-31T21:53:51.882Z,3.10
2022-12-31T21:56:21.223Z,2.57
2022-12-31T21:59:17.370Z,3.00
2022-12-31T22:02:04.121Z,2.97
2022-12-31T22:07:19.946Z,2.63
2022-12-31T22:09:46.811Z,2.67
2022-12-31T22:12:13.617Z,3.17
2022-12-31T22:15:15.467Z,2.53
2022-12-31T22:17:27.737Z,3.77
2022-12-31T22:22:41.894Z,2.67
2022-12-31T22:25:10.364Z,2.80
2022-12-31T22:27:37.440Z,3.23
2022-12-31T22:30:05.800Z,2.83
2022-12-31T22:32:32.609Z,3.13
2022-12-31T22:34:59.392Z,2.37
2022-12-31T22:40:15.522Z,3.60
2022-12-31T22:42:42.403Z,3.10
2022-12-31T22:45:09.632Z,2.60
2022-12-31T22:47:36.544Z,3.60
2022-12-31T22:50:03.360Z,3.57
2022-12-31T22:52:31.161Z,3.00
2022-12-31T22:54:58.387Z,3.57
2022-12-31T22:57:25.295Z,2.90
2022-12-31T22:59:52.174Z,3.70
2022-12-31T23:02:20.374Z,2.80
2022-12-31T23:04:47.277Z,3.93
2022-12-31T23:07:14.117Z,5.33
2022-12-31T23:09:59.644Z,10.20
2022-12-31T23:12:26.422Z,11.50
2022-12-31T23:15:11.958Z,14.90
2022-12-31T23:17:57.238Z,13.97
2022-12-31T23:20:43.714Z,14.20
2022-12-31T23:23:15.834Z,14.80
2022-12-31T23:25:45.485Z,16.40
2022-12-31T23:28:25.762Z,17.73
2022-12-31T23:30:53.158Z,16.67
2022-12-31T23:33:26.906Z,18.47
2022-12-31T23:59:25.191Z,11.60
